EGGPEPRZ

Guest
Details From EGGP - Liverpool
To EPRZ - JASIONKA
Flight Number -
Tags decoded
Created
Modified
Stats Distance 942 nm / 1,745 km
Max Altitude 0 ft / 0 m
Waypoints 3
Social Downloads 0
Likes 0
Share VATSIM

Download

Looking for another format? Having issues loading an existing format? Contact us
Advertisement - Login to hide

Notes

Requested: EGGP LAMSO EPRZ

Route

EGGP LAMSO EPRZ

ID Type Via Altitude Latitude Longitude Leg Dist Tot Dist Heading (true) Name
O EGGP APT - 0 ft / 0 m 53.33363˚ -2.84977˚ - 0 nm - Liverpool
LAMSO FIX - 0 ft / 0 m 52.73290˚ 2.99436˚ 214 nm 214 nm 97° / 102° -
O EPRZ APT - 0 ft / 0 m 50.10761˚ 22.03610˚ 728 nm 942 nm 95° / 110° JASIONKA

Altitude Profile

Advertisement - Login to hide

Weather


0- 5 10 15 20 25 30 35+ Temperature / ° C

Clouds and Precipitation
Forecast for 2017-12-12 18:00 UTC. Updated an hour ago

Ground ~20,000 ft ~40,000 ft Winds

EGGP

Details ICAO EGGP (LPL)
Name Liverpool
Region United Kingdom
Timezone Europe/London (UTC+0.0)
Stats Elevation 80 ft / 24 m (AMSL)
Location 53.333632° -2.849769°
Runways 1
Magnetic Variation 1.675° W

METAR

EGGP 121550Z 16008KT CAVOK 03/02 Q1005

Decode

TAF

TAF TAF EGGP 121102Z 1212/1312 14004KT 9999 FEW045 BECMG 1214/1217 20013KT TEMPO 1217/1223 22017G27KT 6000 RA BKN008 PROB30 TEMPO 1218/1223 4000 +RA BKN004 TEMPO 1223/1304 BKN004 BECMG 1307/1310 26012KT 6000 RA BKN012 PROB30 TEMPO 1310/1312 28018G28KT 4000 +RA BKN009

Decode

Departure Runways

ID Width Length Bearing (true) Bearing (mag) Surface Threshold Offset Overrun Length
09 151 ft / 46 m 7,466 ft / 2,276 m 85.59° 87.27° Asphalt 180 ft / 55 m 0 ft / 0 m
27 151 ft / 46 m 7,466 ft / 2,276 m 265.61° 267.29° Asphalt 0 ft / 0 m 0 ft / 0 m

EPRZ

Details ICAO EPRZ (RZE)
Name JASIONKA
Region Poland
Timezone Europe/Warsaw (UTC+1.0)
Stats Elevation 675 ft / 206 m (AMSL)
Location 50.107614° 22.036096°
Runways 2
Magnetic Variation 5.724° E

METAR

EPRZ 121600Z 20013KT CAVOK 09/05 Q1007

Decode

TAF

TAF EPRZ 121130Z 1212/1312 19015KT CAVOK PROB40 TEMPO 1212/1215 19020G35KT TEMPO 1214/1312 5000 RA BKN014 BECMG 1215/1218 26008KT PROB30 TEMPO 1223/1309 2000 RASN BKN007 BKN014

Decode

Destination Runways

ID Width Length Bearing (true) Bearing (mag) Surface Threshold Offset Overrun Length
08 1,050 ft / 320 m 2,709 ft / 826 m 80.74° 75.02° Grass 0 ft / 0 m 0 ft / 0 m
09 148 ft / 45 m 10,469 ft / 3,191 m 91.16° 85.44° Concrete 0 ft / 0 m 0 ft / 0 m
26 1,050 ft / 320 m 2,709 ft / 826 m 260.74° 255.02° Grass 0 ft / 0 m 0 ft / 0 m
27 148 ft / 45 m 10,469 ft / 3,191 m 271.20° 265.48° Concrete 2,297 ft / 700 m 0 ft / 0 m

Approach Navaids

Runway Type Ident Frequency Range Bearing (true) Bearing (mag) Slope Elevation
27 Localiser RZW 110.30 MHz 18 nm / 33 km 271.15° 265.43° - 675 ft / 206 m (AMSL)
27 Glidescope RZW 110.30 MHz 10 nm / 19 km 271.18° 265.46° 2.90° 675 ft / 206 m (AMSL)
27 DME RZW 110.30 MHz 18 nm / 33 km - - - 787 ft / 240 m (AMSL)

Popular Alternatives